sensor_id;sensor_type;location;lat;lon;timestamp;pressure;altitude;pressure_sealevel;temperature;humidity
18137;BME280;9194;42.632;23.298;2023-11-21T00:04:35;92405.34;;;4.24;100.00
18137;BME280;9194;42.632;23.298;2023-11-21T00:09:36;92404.16;;;4.26;100.00
18137;BME280;9194;42.632;23.298;2023-11-21T00:14:38;92401.97;;;4.23;100.00
18137;BME280;9194;42.632;23.298;2023-11-21T00:19:39;92417.66;;;4.28;100.00
18137;BME280;9194;42.632;23.298;2023-11-21T00:24:40;92399.63;;;4.28;100.00
18137;BME280;9194;42.632;23.298;2023-11-21T00:29:41;92394.69;;;4.33;100.00
18137;BME280;9194;42.632;23.298;2023-11-21T00:34:43;92394.69;;;4.33;100.00
18137;BME280;9194;42.632;23.298;2023-11-21T00:39:44;92385.00;;;4.35;100.00
18137;BME280;9194;42.632;23.298;2023-11-21T00:44:45;92394.28;;;4.30;100.00
18137;BME280;9194;42.632;23.298;2023-11-21T00:49:46;92398.97;;;4.20;100.00
18137;BME280;9194;42.632;23.298;2023-11-21T00:54:48;92391.59;;;4.10;100.00
18137;BME280;9194;42.632;23.298;2023-11-21T00:59:49;92383.56;;;3.98;100.00
18137;BME280;9194;42.632;23.298;2023-11-21T01:04:50;92388.25;;;3.88;100.00
18137;BME280;9194;42.632;23.298;2023-11-21T01:09:52;92378.88;;;3.81;100.00
18137;BME280;9194;42.632;23.298;2023-11-21T01:14:53;92369.34;;;3.75;100.00
18137;BME280;9194;42.632;23.298;2023-11-21T01:19:54;92386.38;;;3.76;100.00
18137;BME280;9194;42.632;23.298;2023-11-21T01:24:57;92386.13;;;3.70;100.00
18137;BME280;9194;42.632;23.298;2023-11-21T01:29:58;92380.13;;;3.63;100.00
18137;BME280;9194;42.632;23.298;2023-11-21T01:35:00;92375.97;;;3.62;100.00
18137;BME280;9194;42.632;23.298;2023-11-21T01:40:02;92363.47;;;3.59;100.00
18137;BME280;9194;42.632;23.298;2023-11-21T01:45:06;92383.84;;;3.54;100.00
18137;BME280;9194;42.632;23.298;2023-11-21T01:50:12;92384.56;;;3.48;100.00
18137;BME280;9194;42.632;23.298;2023-11-21T01:55:16;92359.19;;;3.45;100.00
18137;BME280;9194;42.632;23.298;2023-11-21T02:00:21;92375.38;;;3.39;100.00
18137;BME280;9194;42.632;23.298;2023-11-21T02:05:22;92379.28;;;3.35;100.00
18137;BME280;9194;42.632;23.298;2023-11-21T02:10:24;92370.72;;;3.28;100.00
18137;BME280;9194;42.632;23.298;2023-11-21T02:15:25;92378.88;;;3.32;100.00
18137;BME280;9194;42.632;23.298;2023-11-21T02:20:29;92373.34;;;3.35;100.00
18137;BME280;9194;42.632;23.298;2023-11-21T02:25:32;92369.63;;;3.37;100.00
18137;BME280;9194;42.632;23.298;2023-11-21T02:30:34;92371.34;;;3.30;100.00
18137;BME280;9194;42.632;23.298;2023-11-21T02:35:35;92356.38;;;3.19;100.00
18137;BME280;9194;42.632;23.298;2023-11-21T02:40:36;92374.16;;;3.14;100.00
18137;BME280;9194;42.632;23.298;2023-11-21T02:45:38;92371.06;;;3.04;100.00
18137;BME280;9194;42.632;23.298;2023-11-21T02:50:39;92363.09;;;2.99;100.00
18137;BME280;9194;42.632;23.298;2023-11-21T02:55:40;92362.91;;;3.00;100.00
18137;BME280;9194;42.632;23.298;2023-11-21T03:00:41;92362.50;;;2.97;100.00
18137;BME280;9194;42.632;23.298;2023-11-21T03:05:43;92361.94;;;3.01;100.00
18137;BME280;9194;42.632;23.298;2023-11-21T03:10:44;92358.59;;;3.01;100.00
18137;BME280;9194;42.632;23.298;2023-11-21T03:15:45;92355.84;;;3.02;100.00
18137;BME280;9194;42.632;23.298;2023-11-21T03:20:46;92360.34;;;3.00;100.00
18137;BME280;9194;42.632;23.298;2023-11-21T03:25:48;92378.19;;;3.02;100.00
18137;BME280;9194;42.632;23.298;2023-11-21T03:30:50;92383.81;;;3.12;100.00
18137;BME280;9194;42.632;23.298;2023-11-21T03:35:51;92367.66;;;3.18;100.00
18137;BME280;9194;42.632;23.298;2023-11-21T03:40:54;92379.06;;;3.30;100.00
18137;BME280;9194;42.632;23.298;2023-11-21T03:45:55;92357.84;;;3.28;100.00
18137;BME280;9194;42.632;23.298;2023-11-21T03:51:00;92351.66;;;3.22;100.00
18137;BME280;9194;42.632;23.298;2023-11-21T03:56:02;92346.69;;;3.21;100.00
18137;BME280;9194;42.632;23.298;2023-11-21T04:01:05;92348.69;;;3.19;100.00
18137;BME280;9194;42.632;23.298;2023-11-21T04:06:06;92346.09;;;3.19;100.00
18137;BME280;9194;42.632;23.298;2023-11-21T04:11:07;92344.94;;;3.21;100.00
18137;BME280;9194;42.632;23.298;2023-11-21T04:16:09;92332.06;;;3.21;100.00
18137;BME280;9194;42.632;23.298;2023-11-21T04:21:10;92332.69;;;3.23;100.00
18137;BME280;9194;42.632;23.298;2023-11-21T04:26:11;92330.28;;;3.22;100.00
18137;BME280;9194;42.632;23.298;2023-11-21T04:31:13;92332.88;;;3.22;100.00
18137;BME280;9194;42.632;23.298;2023-11-21T04:36:14;92351.25;;;3.19;100.00
18137;BME280;9194;42.632;23.298;2023-11-21T04:41:15;92349.41;;;3.13;100.00
18137;BME280;9194;42.632;23.298;2023-11-21T04:46:16;92346.47;;;3.16;100.00
18137;BME280;9194;42.632;23.298;2023-11-21T04:51:18;92344.09;;;3.14;100.00
18137;BME280;9194;42.632;23.298;2023-11-21T04:56:19;92348.06;;;3.17;100.00
18137;BME280;9194;42.632;23.298;2023-11-21T05:01:21;92345.53;;;3.23;100.00
18137;BME280;9194;42.632;23.298;2023-11-21T05:06:22;92342.66;;;3.33;100.00
18137;BME280;9194;42.632;23.298;2023-11-21T05:11:28;92343.94;;;3.44;100.00
18137;BME280;9194;42.632;23.298;2023-11-21T05:16:33;92345.75;;;3.50;100.00
18137;BME280;9194;42.632;23.298;2023-11-21T05:21:35;92342.28;;;3.57;100.00
18137;BME280;9194;42.632;23.298;2023-11-21T05:26:37;92336.94;;;3.59;100.00
18137;BME280;9194;42.632;23.298;2023-11-21T05:31:39;92344.66;;;3.59;100.00
18137;BME280;9194;42.632;23.298;2023-11-21T05:36:43;92342.91;;;3.59;100.00
18137;BME280;9194;42.632;23.298;2023-11-21T05:41:46;92357.09;;;3.55;100.00
18137;BME280;9194;42.632;23.298;2023-11-21T05:46:47;92359.44;;;3.50;100.00
18137;BME280;9194;42.632;23.298;2023-11-21T05:51:49;92355.69;;;3.53;100.00
18137;BME280;9194;42.632;23.298;2023-11-21T05:56:50;92339.75;;;3.64;100.00
18137;BME280;9194;42.632;23.298;2023-11-21T06:01:51;92339.41;;;3.73;100.00
18137;BME280;9194;42.632;23.298;2023-11-21T06:06:53;92340.91;;;3.83;100.00
18137;BME280;9194;42.632;23.298;2023-11-21T06:11:54;92344.16;;;3.98;100.00
18137;BME280;9194;42.632;23.298;2023-11-21T06:16:56;92347.63;;;4.11;100.00
18137;BME280;9194;42.632;23.298;2023-11-21T06:21:58;92356.41;;;4.24;100.00
18137;BME280;9194;42.632;23.298;2023-11-21T06:26:59;92349.53;;;4.37;100.00
18137;BME280;9194;42.632;23.298;2023-11-21T06:32:01;92362.38;;;4.65;100.00
18137;BME280;9194;42.632;23.298;2023-11-21T06:37:06;92357.28;;;4.85;100.00
18137;BME280;9194;42.632;23.298;2023-11-21T06:42:07;92367.25;;;4.94;100.00
18137;BME280;9194;42.632;23.298;2023-11-21T06:47:08;92371.06;;;5.12;100.00
18137;BME280;9194;42.632;23.298;2023-11-21T06:52:09;92375.44;;;5.24;100.00
18137;BME280;9194;42.632;23.298;2023-11-21T06:57:11;92374.69;;;5.37;100.00
18137;BME280;9194;42.632;23.298;2023-11-21T07:02:12;92367.91;;;5.23;100.00
18137;BME280;9194;42.632;23.298;2023-11-21T07:07:13;92373.47;;;5.26;100.00
18137;BME280;9194;42.632;23.298;2023-11-21T07:12:15;92365.78;;;5.40;100.00
18137;BME280;9194;42.632;23.298;2023-11-21T07:17:16;92360.63;;;5.46;100.00
18137;BME280;9194;42.632;23.298;2023-11-21T07:22:18;92352.88;;;5.66;100.00
18137;BME280;9194;42.632;23.298;2023-11-21T07:27:22;92359.44;;;5.75;100.00
18137;BME280;9194;42.632;23.298;2023-11-21T07:32:23;92361.84;;;5.90;100.00
18137;BME280;9194;42.632;23.298;2023-11-21T07:37:25;92371.00;;;5.92;100.00
18137;BME280;9194;42.632;23.298;2023-11-21T07:42:29;92367.41;;;6.13;100.00
18137;BME280;9194;42.632;23.298;2023-11-21T07:47:30;92364.00;;;6.26;100.00
18137;BME280;9194;42.632;23.298;2023-11-21T07:52:35;92351.47;;;6.36;100.00
18137;BME280;9194;42.632;23.298;2023-11-21T07:57:36;92354.28;;;6.28;100.00
18137;BME280;9194;42.632;23.298;2023-11-21T08:02:39;92350.88;;;6.34;100.00
18137;BME280;9194;42.632;23.298;2023-11-21T08:07:43;92348.25;;;6.47;100.00
18137;BME280;9194;42.632;23.298;2023-11-21T08:12:45;92343.84;;;6.60;100.00
18137;BME280;9194;42.632;23.298;2023-11-21T08:17:47;92344.19;;;6.77;100.00
18137;BME280;9194;42.632;23.298;2023-11-21T08:22:49;92344.97;;;6.84;100.00
18137;BME280;9194;42.632;23.298;2023-11-21T08:27:50;92347.25;;;7.06;100.00
18137;BME280;9194;42.632;23.298;2023-11-21T08:32:51;92347.38;;;7.17;100.00
18137;BME280;9194;42.632;23.298;2023-11-21T08:37:54;92338.03;;;7.54;100.00
18137;BME280;9194;42.632;23.298;2023-11-21T08:42:56;92334.50;;;7.73;100.00
18137;BME280;9194;42.632;23.298;2023-11-21T08:48:00;92336.06;;;7.99;100.00
18137;BME280;9194;42.632;23.298;2023-11-21T08:53:01;92331.31;;;8.21;100.00
18137;BME280;9194;42.632;23.298;2023-11-21T08:58:03;92321.16;;;8.44;100.00
18137;BME280;9194;42.632;23.298;2023-11-21T09:03:06;92304.78;;;8.44;100.00
18137;BME280;9194;42.632;23.298;2023-11-21T09:08:09;92291.66;;;8.57;100.00
18137;BME280;9194;42.632;23.298;2023-11-21T09:13:11;92283.06;;;8.20;100.00
18137;BME280;9194;42.632;23.298;2023-11-21T09:18:13;92275.34;;;8.38;100.00
18137;BME280;9194;42.632;23.298;2023-11-21T09:23:14;92254.91;;;8.78;100.00
18137;BME280;9194;42.632;23.298;2023-11-21T09:28:16;92247.97;;;8.90;100.00
18137;BME280;9194;42.632;23.298;2023-11-21T09:33:18;92223.19;;;9.06;100.00
18137;BME280;9194;42.632;23.298;2023-11-21T09:38:20;92220.59;;;9.06;100.00
18137;BME280;9194;42.632;23.298;2023-11-21T09:43:21;92213.81;;;9.05;100.00
18137;BME280;9194;42.632;23.298;2023-11-21T09:48:24;92214.81;;;9.04;100.00
18137;BME280;9194;42.632;23.298;2023-11-21T09:53:27;92183.41;;;8.94;100.00
18137;BME280;9194;42.632;23.298;2023-11-21T09:58:32;92184.03;;;9.19;100.00
18137;BME280;9194;42.632;23.298;2023-11-21T10:03:36;92175.59;;;9.47;100.00
18137;BME280;9194;42.632;23.298;2023-11-21T10:08:41;92174.72;;;9.65;100.00
18137;BME280;9194;42.632;23.298;2023-11-21T10:13:44;92163.28;;;10.01;99.10
18137;BME280;9194;42.632;23.298;2023-11-21T10:18:50;92163.19;;;9.96;98.01
18137;BME280;9194;42.632;23.298;2023-11-21T10:23:53;92152.63;;;10.02;98.22
18137;BME280;9194;42.632;23.298;2023-11-21T10:28:59;92147.78;;;10.17;97.63
18137;BME280;9194;42.632;23.298;2023-11-21T10:34:16;92149.44;;;10.35;94.32
18137;BME280;9194;42.632;23.298;2023-11-21T10:39:21;92139.78;;;10.47;93.46
18137;BME280;9194;42.632;23.298;2023-11-21T10:44:24;92143.59;;;10.56;92.74
18137;BME280;9194;42.632;23.298;2023-11-21T10:49:27;92140.66;;;10.53;91.78
18137;BME280;9194;42.632;23.298;2023-11-21T10:54:28;92132.50;;;10.09;94.07
18137;BME280;9194;42.632;23.298;2023-11-21T10:59:30;92115.25;;;10.32;95.51
18137;BME280;9194;42.632;23.298;2023-11-21T11:04:33;92114.16;;;10.27;93.71
18137;BME280;9194;42.632;23.298;2023-11-21T11:09:35;92120.19;;;10.16;95.85
18137;BME280;9194;42.632;23.298;2023-11-21T11:14:36;92107.97;;;10.17;93.16
18137;BME280;9194;42.632;23.298;2023-11-21T11:19:41;92097.09;;;10.20;96.64
18137;BME280;9194;42.632;23.298;2023-11-21T11:41:03;92066.16;;;10.07;95.31
18137;BME280;9194;42.632;23.298;2023-11-21T11:46:07;92083.84;;;9.81;96.18
18137;BME280;9194;42.632;23.298;2023-11-21T11:51:13;92097.75;;;9.64;96.56
18137;BME280;9194;42.632;23.298;2023-11-21T12:01:25;92075.31;;;9.34;97.93
18137;BME280;9194;42.632;23.298;2023-11-21T12:06:36;92094.97;;;9.19;100.00
18137;BME280;9194;42.632;23.298;2023-11-21T12:11:37;92096.19;;;9.16;100.00
18137;BME280;9194;42.632;23.298;2023-11-21T12:16:39;92105.09;;;9.20;100.00
18137;BME280;9194;42.632;23.298;2023-11-21T12:21:40;92093.59;;;9.16;100.00
18137;BME280;9194;42.632;23.298;2023-11-21T12:26:43;92077.47;;;9.14;100.00
18137;BME280;9194;42.632;23.298;2023-11-21T12:31:45;92087.50;;;9.11;100.00
18137;BME280;9194;42.632;23.298;2023-11-21T12:36:47;92096.09;;;9.11;100.00
18137;BME280;9194;42.632;23.298;2023-11-21T12:41:50;92081.06;;;9.13;100.00
18137;BME280;9194;42.632;23.298;2023-11-21T12:46:52;92075.09;;;9.01;100.00
18137;BME280;9194;42.632;23.298;2023-11-21T12:51:54;92067.72;;;8.98;100.00
18137;BME280;9194;42.632;23.298;2023-11-21T12:56:59;92050.34;;;8.87;100.00
18137;BME280;9194;42.632;23.298;2023-11-21T13:02:00;92055.44;;;8.93;100.00
18137;BME280;9194;42.632;23.298;2023-11-21T13:07:05;92036.03;;;9.07;100.00
18137;BME280;9194;42.632;23.298;2023-11-21T13:12:15;92052.84;;;9.05;100.00
18137;BME280;9194;42.632;23.298;2023-11-21T13:17:19;92040.31;;;9.14;100.00
18137;BME280;9194;42.632;23.298;2023-11-21T13:22:22;92042.34;;;9.23;100.00
18137;BME280;9194;42.632;23.298;2023-11-21T13:27:25;92031.97;;;9.23;100.00
18137;BME280;9194;42.632;23.298;2023-11-21T13:32:26;92030.06;;;9.19;100.00
18137;BME280;9194;42.632;23.298;2023-11-21T13:37:28;92027.00;;;9.22;100.00
18137;BME280;9194;42.632;23.298;2023-11-21T13:42:31;92023.16;;;9.24;100.00
18137;BME280;9194;42.632;23.298;2023-11-21T13:47:33;92020.56;;;9.24;100.00
18137;BME280;9194;42.632;23.298;2023-11-21T13:52:36;92011.19;;;9.23;100.00
18137;BME280;9194;42.632;23.298;2023-11-21T13:57:38;92021.25;;;9.08;100.00
18137;BME280;9194;42.632;23.298;2023-11-21T14:02:39;92021.13;;;8.91;100.00
18137;BME280;9194;42.632;23.298;2023-11-21T14:07:44;92021.78;;;8.75;100.00
18137;BME280;9194;42.632;23.298;2023-11-21T14:12:49;92020.66;;;8.71;100.00
18137;BME280;9194;42.632;23.298;2023-11-21T14:17:50;92020.78;;;8.64;100.00
18137;BME280;9194;42.632;23.298;2023-11-21T14:22:51;92028.09;;;8.56;100.00
18137;BME280;9194;42.632;23.298;2023-11-21T14:27:53;92020.06;;;8.46;100.00
18137;BME280;9194;42.632;23.298;2023-11-21T14:32:54;92019.25;;;8.34;100.00
18137;BME280;9194;42.632;23.298;2023-11-21T14:37:55;92022.22;;;8.19;100.00
18137;BME280;9194;42.632;23.298;2023-11-21T14:42:56;92027.28;;;8.14;100.00
18137;BME280;9194;42.632;23.298;2023-11-21T14:47:58;92022.34;;;7.94;100.00
18137;BME280;9194;42.632;23.298;2023-11-21T14:53:07;92010.06;;;7.90;100.00
18137;BME280;9194;42.632;23.298;2023-11-21T14:58:09;92010.81;;;7.78;100.00
18137;BME280;9194;42.632;23.298;2023-11-21T15:03:14;92018.88;;;7.70;100.00
18137;BME280;9194;42.632;23.298;2023-11-21T15:08:33;92009.13;;;7.54;100.00
18137;BME280;9194;42.632;23.298;2023-11-21T15:13:37;92021.13;;;7.49;100.00
18137;BME280;9194;42.632;23.298;2023-11-21T15:18:38;92018.41;;;7.43;100.00
18137;BME280;9194;42.632;23.298;2023-11-21T15:23:39;92010.44;;;7.27;100.00
18137;BME280;9194;42.632;23.298;2023-11-21T15:28:42;92007.72;;;7.22;100.00
18137;BME280;9194;42.632;23.298;2023-11-21T15:33:44;92006.84;;;7.10;100.00
18137;BME280;9194;42.632;23.298;2023-11-21T15:38:45;92010.28;;;7.04;100.00
18137;BME280;9194;42.632;23.298;2023-11-21T15:43:46;91993.09;;;6.91;100.00
18137;BME280;9194;42.632;23.298;2023-11-21T15:48:50;91980.41;;;6.83;100.00
18137;BME280;9194;42.632;23.298;2023-11-21T15:53:54;91980.47;;;6.76;100.00
18137;BME280;9194;42.632;23.298;2023-11-21T15:58:56;91984.50;;;6.72;100.00
18137;BME280;9194;42.632;23.298;2023-11-21T16:03:57;91978.19;;;6.68;100.00
18137;BME280;9194;42.632;23.298;2023-11-21T16:09:01;91987.00;;;6.60;100.00
18137;BME280;9194;42.632;23.298;2023-11-21T16:14:03;91985.41;;;6.59;100.00
18137;BME280;9194;42.632;23.298;2023-11-21T16:19:05;91974.13;;;6.54;100.00
18137;BME280;9194;42.632;23.298;2023-11-21T16:24:06;91970.97;;;6.52;100.00
18137;BME280;9194;42.632;23.298;2023-11-21T16:29:07;91962.69;;;6.43;100.00
18137;BME280;9194;42.632;23.298;2023-11-21T16:34:14;91961.75;;;6.38;100.00
18137;BME280;9194;42.632;23.298;2023-11-21T16:39:15;91957.63;;;6.30;100.00
18137;BME280;9194;42.632;23.298;2023-11-21T16:44:20;91949.94;;;6.24;100.00
18137;BME280;9194;42.632;23.298;2023-11-21T16:49:22;91949.25;;;6.10;100.00
18137;BME280;9194;42.632;23.298;2023-11-21T16:54:24;91947.66;;;6.09;100.00
18137;BME280;9194;42.632;23.298;2023-11-21T16:59:25;91948.31;;;6.04;100.00
18137;BME280;9194;42.632;23.298;2023-11-21T17:04:27;91947.66;;;6.09;100.00
18137;BME280;9194;42.632;23.298;2023-11-21T17:09:28;91949.94;;;5.99;100.00
18137;BME280;9194;42.632;23.298;2023-11-21T17:14:29;91952.56;;;5.92;100.00
18137;BME280;9194;42.632;23.298;2023-11-21T17:19:31;91943.03;;;5.86;100.00
18137;BME280;9194;42.632;23.298;2023-11-21T17:24:34;91940.28;;;5.81;100.00
18137;BME280;9194;42.632;23.298;2023-11-21T17:29:37;91951.47;;;5.75;100.00
18137;BME280;9194;42.632;23.298;2023-11-21T17:34:38;91937.13;;;5.79;100.00
18137;BME280;9194;42.632;23.298;2023-11-21T17:39:40;91941.13;;;5.75;100.00
18137;BME280;9194;42.632;23.298;2023-11-21T17:44:41;91942.34;;;5.66;100.00
18137;BME280;9194;42.632;23.298;2023-11-21T17:49:43;91949.53;;;5.64;100.00
18137;BME280;9194;42.632;23.298;2023-11-21T17:54:44;91949.31;;;5.65;100.00
18137;BME280;9194;42.632;23.298;2023-11-21T17:59:45;91948.75;;;5.63;100.00
18137;BME280;9194;42.632;23.298;2023-11-21T18:04:48;91946.78;;;5.59;100.00
18137;BME280;9194;42.632;23.298;2023-11-21T18:09:49;91940.84;;;5.58;100.00
18137;BME280;9194;42.632;23.298;2023-11-21T18:14:50;91940.59;;;5.60;100.00
18137;BME280;9194;42.632;23.298;2023-11-21T18:19:52;91935.28;;;5.55;100.00
18137;BME280;9194;42.632;23.298;2023-11-21T18:24:55;91931.88;;;5.61;100.00
18137;BME280;9194;42.632;23.298;2023-11-21T18:29:57;91934.25;;;5.62;100.00
18137;BME280;9194;42.632;23.298;2023-11-21T18:35:01;91929.28;;;5.61;100.00
18137;BME280;9194;42.632;23.298;2023-11-21T18:40:04;91930.47;;;5.65;100.00
18137;BME280;9194;42.632;23.298;2023-11-21T18:45:06;91933.25;;;5.63;100.00
18137;BME280;9194;42.632;23.298;2023-11-21T18:50:08;91914.38;;;5.63;100.00
18137;BME280;9194;42.632;23.298;2023-11-21T18:55:11;91904.31;;;5.55;100.00
18137;BME280;9194;42.632;23.298;2023-11-21T19:00:13;91908.84;;;5.59;100.00
18137;BME280;9194;42.632;23.298;2023-11-21T19:05:15;91915.06;;;5.52;100.00
18137;BME280;9194;42.632;23.298;2023-11-21T19:10:16;91902.69;;;5.60;100.00
18137;BME280;9194;42.632;23.298;2023-11-21T19:15:20;91909.44;;;5.61;100.00
18137;BME280;9194;42.632;23.298;2023-11-21T19:20:21;91914.22;;;5.58;100.00
18137;BME280;9194;42.632;23.298;2023-11-21T19:25:24;91909.06;;;5.58;100.00
18137;BME280;9194;42.632;23.298;2023-11-21T19:30:25;91898.94;;;5.56;100.00
18137;BME280;9194;42.632;23.298;2023-11-21T19:35:27;91923.03;;;5.44;100.00
18137;BME280;9194;42.632;23.298;2023-11-21T19:40:30;91925.06;;;5.42;100.00
18137;BME280;9194;42.632;23.298;2023-11-21T19:45:33;91916.28;;;5.43;100.00
18137;BME280;9194;42.632;23.298;2023-11-21T19:50:35;91924.19;;;5.48;100.00
18137;BME280;9194;42.632;23.298;2023-11-21T19:55:36;91914.63;;;5.55;100.00
18137;BME280;9194;42.632;23.298;2023-11-21T20:00:39;91915.38;;;5.62;100.00
18137;BME280;9194;42.632;23.298;2023-11-21T20:05:41;91906.81;;;5.68;100.00
18137;BME280;9194;42.632;23.298;2023-11-21T20:10:45;91902.22;;;5.70;100.00
18137;BME280;9194;42.632;23.298;2023-11-21T20:15:49;91899.38;;;5.78;100.00
18137;BME280;9194;42.632;23.298;2023-11-21T20:20:50;91901.41;;;5.76;100.00
18137;BME280;9194;42.632;23.298;2023-11-21T20:25:52;91889.28;;;5.76;100.00
18137;BME280;9194;42.632;23.298;2023-11-21T20:30:58;91885.50;;;5.72;100.00
18137;BME280;9194;42.632;23.298;2023-11-21T20:35:59;91914.25;;;5.83;100.00
18137;BME280;9194;42.632;23.298;2023-11-21T20:41:01;91908.56;;;5.74;100.00
18137;BME280;9194;42.632;23.298;2023-11-21T20:46:05;91898.75;;;5.83;100.00
18137;BME280;9194;42.632;23.298;2023-11-21T20:51:11;91886.22;;;5.86;100.00
18137;BME280;9194;42.632;23.298;2023-11-21T20:56:13;91923.06;;;5.75;100.00
18137;BME280;9194;42.632;23.298;2023-11-21T21:01:14;91916.47;;;5.79;100.00
18137;BME280;9194;42.632;23.298;2023-11-21T21:06:37;91919.78;;;5.86;100.00
18137;BME280;9194;42.632;23.298;2023-11-21T21:11:38;91900.22;;;5.72;100.00
18137;BME280;9194;42.632;23.298;2023-11-21T21:16:40;91904.53;;;5.78;100.00
18137;BME280;9194;42.632;23.298;2023-11-21T21:21:42;91899.63;;;5.76;100.00
18137;BME280;9194;42.632;23.298;2023-11-21T21:26:45;91893.38;;;5.84;100.00
18137;BME280;9194;42.632;23.298;2023-11-21T21:31:46;91900.91;;;5.86;100.00
18137;BME280;9194;42.632;23.298;2023-11-21T21:36:47;91909.06;;;5.83;100.00
18137;BME280;9194;42.632;23.298;2023-11-21T21:41:50;91909.06;;;5.89;100.00
18137;BME280;9194;42.632;23.298;2023-11-21T21:46:51;91910.44;;;5.92;100.00
18137;BME280;9194;42.632;23.298;2023-11-21T21:51:53;91906.47;;;5.89;100.00
18137;BME280;9194;42.632;23.298;2023-11-21T21:56:54;91909.28;;;5.88;100.00
18137;BME280;9194;42.632;23.298;2023-11-21T22:01:55;91903.91;;;5.89;100.00
18137;BME280;9194;42.632;23.298;2023-11-21T22:06:57;91905.47;;;5.90;100.00
18137;BME280;9194;42.632;23.298;2023-11-21T22:11:58;91892.59;;;5.84;100.00
18137;BME280;9194;42.632;23.298;2023-11-21T22:16:59;91902.50;;;5.87;100.00
18137;BME280;9194;42.632;23.298;2023-11-21T22:22:01;91899.53;;;5.83;100.00
18137;BME280;9194;42.632;23.298;2023-11-21T22:27:02;91902.50;;;5.87;100.00
18137;BME280;9194;42.632;23.298;2023-11-21T22:32:04;91890.19;;;5.89;100.00
18137;BME280;9194;42.632;23.298;2023-11-21T22:37:06;91883.56;;;5.99;100.00
18137;BME280;9194;42.632;23.298;2023-11-21T22:42:07;91880.84;;;6.12;100.00
18137;BME280;9194;42.632;23.298;2023-11-21T22:47:09;91886.00;;;6.12;100.00
18137;BME280;9194;42.632;23.298;2023-11-21T22:52:10;91889.72;;;6.23;100.00
18137;BME280;9194;42.632;23.298;2023-11-21T22:57:12;91882.91;;;6.29;100.00
18137;BME280;9194;42.632;23.298;2023-11-21T23:02:13;91875.44;;;6.39;100.00
18137;BME280;9194;42.632;23.298;2023-11-21T23:07:14;91875.56;;;6.26;100.00
18137;BME280;9194;42.632;23.298;2023-11-21T23:12:17;91885.25;;;6.30;100.00
18137;BME280;9194;42.632;23.298;2023-11-21T23:17:18;91875.47;;;6.14;100.00
18137;BME280;9194;42.632;23.298;2023-11-21T23:22:19;91887.19;;;6.16;100.00
18137;BME280;9194;42.632;23.298;2023-11-21T23:27:21;91886.91;;;6.25;100.00
18137;BME280;9194;42.632;23.298;2023-11-21T23:32:22;91877.00;;;6.22;100.00
18137;BME280;9194;42.632;23.298;2023-11-21T23:37:23;91871.00;;;6.28;100.00
18137;BME280;9194;42.632;23.298;2023-11-21T23:42:25;91875.16;;;6.29;100.00
18137;BME280;9194;42.632;23.298;2023-11-21T23:47:27;91880.31;;;6.29;100.00
18137;BME280;9194;42.632;23.298;2023-11-21T23:52:28;91890.56;;;6.35;100.00
18137;BME280;9194;42.632;23.298;2023-11-21T23:57:29;91884.56;;;6.41;100.00
